Аэропорт: Платов. Ростов-на-Дону

ICAO: URRP

METAR:
2021-07-28 14:30:00
URRP 281430Z 25002MPS 230V290 9999 FEW///CB 32/14 Q1015 R23/CLRD70 NOSIG RMK QFE753/1004
METAR:
2021-07-28 10:55:00
TAF URRP 281055Z 2812/2912 28003G10MPS 9999 SCT030 TX32/2812Z TN20/2902Z TEMPO 2812/2912 31005G12MPS SCT030CB